createdAt,value
2022-09-04T00:00:11.433Z,21.30
2022-09-04T00:02:59.777Z,21.30
2022-09-04T00:05:52.420Z,21.40
2022-09-04T00:08:28.684Z,21.30
2022-09-04T00:11:27.855Z,21.30
2022-09-04T00:14:14.641Z,21.30
2022-09-04T00:17:02.078Z,21.30
2022-09-04T00:19:46.532Z,21.30
2022-09-04T00:22:37.398Z,21.30
2022-09-04T00:25:10.795Z,21.30
2022-09-04T00:27:46.463Z,21.30
2022-09-04T00:30:20.513Z,21.30
2022-09-04T00:33:18.426Z,21.30
2022-09-04T00:35:56.150Z,21.30
2022-09-04T00:38:26.434Z,21.30
2022-09-04T00:41:21.013Z,21.20
2022-09-04T00:44:00.483Z,21.20
2022-09-04T00:46:53.246Z,21.10
2022-09-04T00:49:40.350Z,21.10
2022-09-04T00:52:10.425Z,21.10
2022-09-04T00:54:49.979Z,21.10
2022-09-04T00:57:55.283Z,21.10
2022-09-04T01:00:25.529Z,21.00
2022-09-04T01:03:07.903Z,20.90
2022-09-04T01:05:48.551Z,20.80
2022-09-04T01:08:40.729Z,20.80
2022-09-04T01:11:26.263Z,20.70
2022-09-04T01:14:18.141Z,20.70
2022-09-04T01:16:56.535Z,20.60
2022-09-04T01:19:41.869Z,20.60
2022-09-04T01:22:44.246Z,20.60
2022-09-04T01:25:31.106Z,20.60
2022-09-04T01:28:10.805Z,20.60
2022-09-04T01:30:49.172Z,20.60
2022-09-04T01:33:43.987Z,20.60
2022-09-04T01:36:27.931Z,20.60
2022-09-04T01:39:01.458Z,20.60
2022-09-04T01:41:38.670Z,20.60
2022-09-04T01:44:09.331Z,20.70
2022-09-04T01:46:39.556Z,20.70
2022-09-04T01:49:27.761Z,20.70
2022-09-04T01:52:01.225Z,20.80
2022-09-04T01:55:06.746Z,20.80
2022-09-04T01:57:55.402Z,20.80
2022-09-04T02:00:25.056Z,20.90
2022-09-04T02:03:24.182Z,20.90
2022-09-04T02:06:39.379Z,20.90
2022-09-04T02:09:36.029Z,20.90
2022-09-04T02:12:35.926Z,21.00
2022-09-04T02:15:30.786Z,21.00
2022-09-04T02:18:11.685Z,21.00
2022-09-04T02:20:47.126Z,21.10
2022-09-04T02:24:02.605Z,21.10
2022-09-04T02:26:37.295Z,21.20
2022-09-04T02:29:23.507Z,21.20
2022-09-04T02:32:01.585Z,21.20
2022-09-04T02:34:31.961Z,21.20
2022-09-04T02:37:25.631Z,21.20
2022-09-04T02:40:03.716Z,21.10
2022-09-04T02:42:40.816Z,21.10
2022-09-04T02:45:10.923Z,21.10
2022-09-04T02:48:18.657Z,21.10
2022-09-04T02:50:49.880Z,21.00
2022-09-04T02:53:30.825Z,21.10
2022-09-04T02:56:22.474Z,21.10
2022-09-04T02:59:33.839Z,21.00
2022-09-04T03:02:04.337Z,21.00
2022-09-04T03:05:12.663Z,21.00
2022-09-04T03:07:47.188Z,20.90
2022-09-04T03:10:21.074Z,20.90
2022-09-04T03:12:56.410Z,20.90
2022-09-04T03:16:03.056Z,20.90
2022-09-04T03:18:49.511Z,20.90
2022-09-04T03:21:25.210Z,20.90
2022-09-04T03:24:03.074Z,20.90
2022-09-04T03:26:43.790Z,20.80
2022-09-04T03:29:51.303Z,20.80
2022-09-04T03:32:43.555Z,20.70
2022-09-04T03:35:39.640Z,20.60
2022-09-04T03:38:16.031Z,20.50
2022-09-04T03:41:00.530Z,20.50
2022-09-04T03:43:27.889Z,20.50
2022-09-04T03:46:02.553Z,20.40
2022-09-04T03:48:41.869Z,20.40
2022-09-04T03:51:27.886Z,20.40
2022-09-04T03:54:24.139Z,20.40
2022-09-04T03:57:10.109Z,20.40
2022-09-04T03:59:59.422Z,20.50
2022-09-04T04:02:54.327Z,20.50
2022-09-04T04:05:48.360Z,20.50
2022-09-04T04:08:42.155Z,20.60
2022-09-04T04:11:47.164Z,20.60
2022-09-04T04:14:51.408Z,20.60
2022-09-04T04:17:35.392Z,20.50
2022-09-04T04:20:11.727Z,20.50
2022-09-04T04:23:02.984Z,20.50
2022-09-04T04:26:04.501Z,20.50
2022-09-04T04:28:41.356Z,20.60
2022-09-04T04:31:44.553Z,20.70
2022-09-04T04:34:54.205Z,20.70
2022-09-04T04:38:08.107Z,20.80
2022-09-04T04:41:11.634Z,20.70
2022-09-04T04:44:10.170Z,20.80
2022-09-04T04:46:43.427Z,20.50
2022-09-04T04:49:29.105Z,20.50
2022-09-04T04:52:18.433Z,20.40
2022-09-04T04:54:51.576Z,20.30
2022-09-04T04:57:18.943Z,20.30
2022-09-04T05:00:07.730Z,20.30
2022-09-04T05:02:51.919Z,20.20
2022-09-04T05:05:43.691Z,20.10
2022-09-04T05:08:37.887Z,20.10
2022-09-04T05:11:24.354Z,20.10
2022-09-04T05:14:09.663Z,20.10
2022-09-04T05:16:53.506Z,20.00
2022-09-04T05:19:50.407Z,20.10
2022-09-04T05:22:25.890Z,20.10
2022-09-04T05:24:59.207Z,20.20
2022-09-04T05:28:07.405Z,20.30
2022-09-04T05:30:48.213Z,20.40
2022-09-04T05:33:30.238Z,20.60
2022-09-04T05:36:06.903Z,20.70
2022-09-04T05:38:50.234Z,20.80
2022-09-04T05:41:41.751Z,20.90
2022-09-04T05:44:27.975Z,21.00
2022-09-04T05:46:55.402Z,21.10
2022-09-04T05:49:49.259Z,21.10
2022-09-04T05:52:32.357Z,21.10
2022-09-04T05:55:19.531Z,21.30
2022-09-04T05:57:58.938Z,21.30
2022-09-04T06:00:35.867Z,21.40
2022-09-04T06:03:27.224Z,21.40
2022-09-04T06:06:11.233Z,21.40
2022-09-04T06:08:38.584Z,21.30
2022-09-04T06:11:43.670Z,21.30
2022-09-04T06:14:49.618Z,21.30
2022-09-04T06:17:35.208Z,21.40
2022-09-04T06:20:18.731Z,21.40
2022-09-04T06:22:55.576Z,21.50
2022-09-04T06:25:49.430Z,21.60
2022-09-04T06:28:20.041Z,21.80
2022-09-04T06:31:18.667Z,22.10
2022-09-04T06:33:54.462Z,22.40
2022-09-04T06:36:51.030Z,22.70
2022-09-04T06:39:33.992Z,23.00
2022-09-04T06:42:22.576Z,23.80
2022-09-04T06:45:17.610Z,25.10
2022-09-04T06:47:47.830Z,26.40
2022-09-04T06:50:20.267Z,27.40
2022-09-04T06:53:08.110Z,28.20
2022-09-04T06:56:10.373Z,28.20
2022-09-04T06:59:08.622Z,27.90
2022-09-04T07:02:04.253Z,27.00
2022-09-04T07:05:10.059Z,26.60
2022-09-04T07:08:00.333Z,26.80
2022-09-04T07:10:38.488Z,26.80
2022-09-04T07:13:35.680Z,26.90
2022-09-04T07:16:09.504Z,27.20
2022-09-04T07:18:40.161Z,28.00
2022-09-04T07:21:34.109Z,29.10
2022-09-04T07:24:08.797Z,30.10
2022-09-04T07:26:53.002Z,30.90
2022-09-04T07:29:39.358Z,31.30
2022-09-04T07:32:27.033Z,32.10
2022-09-04T07:35:21.227Z,32.40
2022-09-04T07:38:17.094Z,32.60
2022-09-04T07:40:50.885Z,33.00
2022-09-04T07:43:46.161Z,33.50
2022-09-04T07:46:40.292Z,34.00
2022-09-04T07:49:32.151Z,34.60
2022-09-04T07:52:20.142Z,34.90
2022-09-04T07:54:59.574Z,34.10
2022-09-04T07:57:39.203Z,33.80
2022-09-04T08:00:18.504Z,33.40
2022-09-04T08:03:13.569Z,32.40
2022-09-04T08:06:18.162Z,31.40
2022-09-04T08:08:57.317Z,30.60
2022-09-04T08:12:06.037Z,30.20
2022-09-04T08:14:48.449Z,29.80
2022-09-04T08:17:43.294Z,30.00
2022-09-04T08:20:22.474Z,30.70
2022-09-04T08:23:01.983Z,30.80
2022-09-04T08:25:43.330Z,30.40
2022-09-04T08:28:24.411Z,30.30
2022-09-04T08:31:32.183Z,31.30
2022-09-04T08:34:17.821Z,32.70
2022-09-04T08:37:03.486Z,33.70
2022-09-04T08:39:40.847Z,34.40
2022-09-04T08:42:26.875Z,35.50
2022-09-04T08:45:22.202Z,35.60
2022-09-04T08:47:55.357Z,36.00
2022-09-04T08:50:57.562Z,36.60
2022-09-04T08:53:55.755Z,37.00
2022-09-04T08:56:34.737Z,36.90
2022-09-04T08:59:24.713Z,36.70
2022-09-04T09:02:21.147Z,36.60
2022-09-04T09:05:15.918Z,36.90
2022-09-04T09:08:21.011Z,36.30
2022-09-04T09:10:51.286Z,36.50
2022-09-04T09:13:33.660Z,36.70
2022-09-04T09:16:31.869Z,37.00
2022-09-04T09:19:02.050Z,37.40
2022-09-04T09:21:45.422Z,37.50
2022-09-04T09:24:31.622Z,37.50
2022-09-04T09:27:22.202Z,37.30
2022-09-04T09:30:07.932Z,37.40
2022-09-04T09:32:58.656Z,37.60
2022-09-04T09:35:51.571Z,37.80
2022-09-04T09:38:24.965Z,37.60
2022-09-04T09:41:14.590Z,37.10
2022-09-04T09:43:57.070Z,36.20
2022-09-04T09:47:01.695Z,36.70
2022-09-04T09:49:50.653Z,37.00
2022-09-04T09:52:45.692Z,37.60
2022-09-04T09:55:50.642Z,37.50
2022-09-04T09:59:09.702Z,37.40
2022-09-04T10:02:12.803Z,36.60
2022-09-04T10:05:27.434Z,36.70
2022-09-04T10:08:21.738Z,36.10
2022-09-04T10:11:23.700Z,34.60
2022-09-04T10:14:09.842Z,33.10
2022-09-04T10:17:13.485Z,32.10
2022-09-04T10:20:24.887Z,31.60
2022-09-04T10:23:07.834Z,32.00
2022-09-04T10:25:47.033Z,33.20
2022-09-04T10:28:20.586Z,34.30
2022-09-04T10:31:27.034Z,35.00
2022-09-04T10:34:34.856Z,35.80
2022-09-04T10:37:38.837Z,36.60
2022-09-04T10:40:42.871Z,36.00
2022-09-04T10:43:45.725Z,35.50
2022-09-04T10:46:28.903Z,35.90
2022-09-04T10:49:15.468Z,36.20
2022-09-04T10:52:07.777Z,36.50
2022-09-04T10:54:56.754Z,36.30
2022-09-04T10:57:51.540Z,35.90
2022-09-04T11:00:21.338Z,35.80
2022-09-04T11:03:02.529Z,35.30
2022-09-04T11:05:44.905Z,34.60
2022-09-04T11:08:21.106Z,33.90
2022-09-04T11:11:25.637Z,33.10
2022-09-04T11:13:56.456Z,32.20
2022-09-04T11:16:37.519Z,31.10
2022-09-04T11:19:43.420Z,30.50
2022-09-04T11:22:34.554Z,30.20
2022-09-04T11:25:53.571Z,30.00
2022-09-04T11:28:56.951Z,29.70
2022-09-04T11:31:59.493Z,29.50
2022-09-04T11:34:33.862Z,29.30
2022-09-04T11:37:07.271Z,29.30
2022-09-04T11:39:40.561Z,29.60
2022-09-04T11:42:20.369Z,29.80
2022-09-04T11:45:09.637Z,29.70
2022-09-04T11:47:49.162Z,29.60
2022-09-04T11:50:22.445Z,29.50
2022-09-04T11:53:14.059Z,29.40
2022-09-04T11:55:44.295Z,29.40
2022-09-04T11:58:36.629Z,29.40
2022-09-04T12:01:47.662Z,29.40
2022-09-04T12:04:53.905Z,29.40
2022-09-04T12:07:47.553Z,29.50
2022-09-04T12:10:30.191Z,29.50
2022-09-04T12:13:15.003Z,29.40
2022-09-04T12:16:21.051Z,29.30
2022-09-04T12:19:06.436Z,29.20
2022-09-04T12:22:21.398Z,29.10
2022-09-04T12:25:36.722Z,29.00
2022-09-04T12:28:40.384Z,29.10
2022-09-04T12:31:19.460Z,29.20
2022-09-04T12:34:16.302Z,29.40
2022-09-04T12:37:19.982Z,29.30
2022-09-04T12:39:53.299Z,29.40
2022-09-04T12:42:36.423Z,29.60
2022-09-04T12:45:36.579Z,29.50
2022-09-04T12:48:11.274Z,29.40
2022-09-04T12:51:09.468Z,29.20
2022-09-04T12:53:52.661Z,29.20
2022-09-04T12:56:30.337Z,29.30
2022-09-04T12:59:20.454Z,29.40
2022-09-04T13:01:59.159Z,29.60
2022-09-04T13:04:44.677Z,29.70
2022-09-04T13:07:32.843Z,29.90
2022-09-04T13:10:03.297Z,29.90
2022-09-04T13:13:02.725Z,29.80
2022-09-04T13:15:38.241Z,29.90
2022-09-04T13:18:49.479Z,30.10
2022-09-04T13:21:30.145Z,30.20
2022-09-04T13:24:19.686Z,30.20
2022-09-04T13:27:00.679Z,30.10
2022-09-04T13:29:40.946Z,30.10
2022-09-04T13:32:56.016Z,30.00
2022-09-04T13:35:42.633Z,29.80
2022-09-04T13:38:28.570Z,29.70
2022-09-04T13:41:37.921Z,29.70
2022-09-04T13:44:05.596Z,29.70
2022-09-04T13:46:56.761Z,29.70
2022-09-04T13:49:31.612Z,29.60
2022-09-04T13:52:34.579Z,29.50
2022-09-04T13:55:18.759Z,29.30
2022-09-04T13:57:57.527Z,29.10
2022-09-04T14:00:27.959Z,29.00
2022-09-04T14:03:05.356Z,28.80
2022-09-04T14:05:38.944Z,28.90
2022-09-04T14:08:13.461Z,29.00
2022-09-04T14:11:05.166Z,29.20
2022-09-04T14:13:51.846Z,29.30
2022-09-04T14:16:19.759Z,29.30
2022-09-04T14:19:20.131Z,29.30
2022-09-04T14:22:18.219Z,29.20
2022-09-04T14:24:48.366Z,29.00
2022-09-04T14:27:44.541Z,28.90
2022-09-04T14:30:18.562Z,28.90
2022-09-04T14:32:49.469Z,29.00
2022-09-04T14:35:22.078Z,29.10
2022-09-04T14:38:15.118Z,29.20
2022-09-04T14:40:56.657Z,29.20
2022-09-04T14:43:45.497Z,29.10
2022-09-04T14:46:35.675Z,29.00
2022-09-04T14:49:08.824Z,28.90
2022-09-04T14:51:43.591Z,28.90
2022-09-04T14:54:24.617Z,28.90
2022-09-04T14:56:58.106Z,29.00
2022-09-04T14:59:41.346Z,29.10
2022-09-04T15:02:08.858Z,29.10
2022-09-04T15:04:50.215Z,29.20
2022-09-04T15:07:41.786Z,29.30
2022-09-04T15:10:26.928Z,29.40
2022-09-04T15:13:00.529Z,29.40
2022-09-04T15:15:41.862Z,29.50
2022-09-04T15:18:10.761Z,29.50
2022-09-04T15:20:44.902Z,29.40
2022-09-04T15:23:45.494Z,29.20
2022-09-04T15:26:46.283Z,29.10
2022-09-04T15:29:29.665Z,28.90
2022-09-04T15:32:02.889Z,28.80
2022-09-04T15:34:32.198Z,28.80
2022-09-04T15:37:13.773Z,28.80
2022-09-04T15:40:12.602Z,28.70
2022-09-04T15:43:08.342Z,28.70
2022-09-04T15:45:53.817Z,28.70
2022-09-04T15:48:48.122Z,28.60
2022-09-04T15:51:19.083Z,28.70
2022-09-04T15:54:09.682Z,28.80
2022-09-04T15:56:45.443Z,28.90
2022-09-04T15:59:18.322Z,28.90
2022-09-04T16:02:12.564Z,28.90
2022-09-04T16:05:23.741Z,28.90
2022-09-04T16:08:21.103Z,28.90
2022-09-04T16:11:11.718Z,28.80
2022-09-04T16:13:51.100Z,28.80
2022-09-04T16:16:23.866Z,28.70
2022-09-04T16:19:00.736Z,28.70
2022-09-04T16:21:40.521Z,28.60
2022-09-04T16:24:29.719Z,28.60
2022-09-04T16:26:57.524Z,28.50
2022-09-04T16:29:36.377Z,28.50
2022-09-04T16:32:09.621Z,28.50
2022-09-04T16:34:46.088Z,28.40
2022-09-04T16:37:31.773Z,28.40
2022-09-04T16:40:29.775Z,28.40
2022-09-04T16:43:16.950Z,28.40
2022-09-04T16:45:55.333Z,28.30
2022-09-04T16:48:39.847Z,28.30
2022-09-04T16:51:42.035Z,28.20
2022-09-04T16:54:34.235Z,28.20
2022-09-04T16:57:15.131Z,28.20
2022-09-04T16:59:55.773Z,28.10
2022-09-04T17:02:42.328Z,28.10
2022-09-04T17:05:28.827Z,28.00
2022-09-04T17:08:10.238Z,27.90
2022-09-04T17:10:48.654Z,27.90
2022-09-04T17:13:29.094Z,27.80
2022-09-04T17:16:13.001Z,27.70
2022-09-04T17:18:47.867Z,27.70
2022-09-04T17:23:47.103Z,27.60
2022-09-04T17:28:59.189Z,27.50
2022-09-04T17:29:08.057Z,27.50
2022-09-04T17:30:44.331Z,27.40
2022-09-04T17:40:32.038Z,27.30
2022-09-04T17:40:37.663Z,27.30
2022-09-04T17:40:54.281Z,27.20
2022-09-04T17:43:22.904Z,27.10
2022-09-04T17:46:02.217Z,27.10
2022-09-04T17:48:39.484Z,27.00
2022-09-04T17:51:08.761Z,26.90
2022-09-04T17:53:46.207Z,26.90
2022-09-04T17:56:45.606Z,26.80
2022-09-04T17:59:23.969Z,26.70
2022-09-04T18:01:51.422Z,26.70
2022-09-04T18:04:26.473Z,26.60
2022-09-04T18:06:53.837Z,26.60
2022-09-04T18:09:32.230Z,26.50
2022-09-04T18:12:05.400Z,26.50
2022-09-04T18:15:34.413Z,26.40
2022-09-04T18:18:00.698Z,26.40
2022-09-04T18:20:43.713Z,26.30
2022-09-04T18:23:16.926Z,26.30
2022-09-04T18:25:50.922Z,26.30
2022-09-04T18:28:22.122Z,26.20
2022-09-04T18:37:07.358Z,26.10
2022-09-04T18:37:08.359Z,26.20
2022-09-04T18:37:44.463Z,26.10
2022-09-04T18:40:21.523Z,25.90
2022-09-04T18:50:20.206Z,25.90
2022-09-04T18:50:32.332Z,25.70
2022-09-04T18:50:43.933Z,25.80
2022-09-04T18:52:04.732Z,25.60
2022-09-04T18:54:41.745Z,25.60
2022-09-04T18:57:33.091Z,25.60
2022-09-04T19:00:09.327Z,25.50
2022-09-04T19:03:03.454Z,25.50
2022-09-04T19:05:44.407Z,25.40
2022-09-04T19:08:21.945Z,25.30
2022-09-04T19:11:09.458Z,25.20
2022-09-04T19:14:15.402Z,25.10
2022-09-04T19:16:49.155Z,25.00
2022-09-04T19:19:31.521Z,24.90
2022-09-04T19:22:28.689Z,24.90
2022-09-04T19:25:24.954Z,24.70
2022-09-04T19:28:01.918Z,24.70
2022-09-04T19:30:56.893Z,24.70
2022-09-04T19:33:32.734Z,24.60
2022-09-04T19:36:08.056Z,24.50
2022-09-04T19:45:56.851Z,24.50
2022-09-04T19:46:06.216Z,24.40
2022-09-04T19:46:07.887Z,24.30
2022-09-04T19:47:49.092Z,24.20
2022-09-04T19:52:05.005Z,24.20
2022-09-04T19:53:37.748Z,24.20
2022-09-04T19:56:19.830Z,24.10
2022-09-04T19:58:53.453Z,24.10
2022-09-04T20:01:25.656Z,24.10
2022-09-04T20:04:03.909Z,24.00
2022-09-04T20:06:39.563Z,24.00
2022-09-04T20:09:33.096Z,24.00
2022-09-04T20:12:21.223Z,24.00
2022-09-04T20:15:14.941Z,24.00
2022-09-04T20:18:04.215Z,24.00
2022-09-04T20:21:07.721Z,24.00
2022-09-04T20:24:01.702Z,24.00
2022-09-04T20:26:35.744Z,24.00
2022-09-04T20:29:30.797Z,24.00
2022-09-04T20:32:09.590Z,24.00
2022-09-04T20:34:48.475Z,24.00
2022-09-04T20:37:48.768Z,23.90
2022-09-04T20:40:41.496Z,23.90
2022-09-04T20:43:14.806Z,23.80
2022-09-04T20:48:43.329Z,23.70
2022-09-04T20:52:57.425Z,23.60
2022-09-04T20:53:06.361Z,23.60
2022-09-04T20:55:26.114Z,23.50
2022-09-04T21:03:05.491Z,23.40
2022-09-04T21:03:19.846Z,23.40
2022-09-04T21:04:05.915Z,23.20
2022-09-04T21:07:12.690Z,23.10
2022-09-04T21:09:56.014Z,23.10
2022-09-04T21:12:45.165Z,23.10
2022-09-04T21:15:23.899Z,23.10
2022-09-04T21:18:08.830Z,23.10
2022-09-04T21:21:19.731Z,23.10
2022-09-04T21:24:03.871Z,23.10
2022-09-04T21:26:36.594Z,23.10
2022-09-04T21:29:28.548Z,23.10
2022-09-04T21:32:33.627Z,23.00
2022-09-04T21:35:20.480Z,23.00
2022-09-04T21:38:11.754Z,23.00
2022-09-04T21:40:53.514Z,23.00
2022-09-04T21:43:45.912Z,23.00
2022-09-04T21:46:37.688Z,22.90
2022-09-04T21:49:33.427Z,22.80
2022-09-04T21:52:13.741Z,22.90
2022-09-04T21:57:45.789Z,22.80
2022-09-04T22:02:27.025Z,22.70
2022-09-04T22:02:38.450Z,22.70
2022-09-04T22:04:13.249Z,22.70
2022-09-04T22:10:49.472Z,22.70
2022-09-04T22:13:38.966Z,22.70
2022-09-04T22:13:50.244Z,22.70
2022-09-04T22:16:59.093Z,22.80
2022-09-04T22:19:32.059Z,22.80
2022-09-04T22:22:24.862Z,22.80
2022-09-04T22:25:17.351Z,22.90
2022-09-04T22:28:11.677Z,22.90
2022-09-04T22:31:02.339Z,22.90
2022-09-04T22:34:23.479Z,22.90
2022-09-04T22:36:59.199Z,22.90
2022-09-04T22:39:49.784Z,22.90
2022-09-04T22:42:35.782Z,22.90
2022-09-04T22:45:43.084Z,22.90
2022-09-04T22:48:31.561Z,22.90
2022-09-04T22:51:15.050Z,22.90
2022-09-04T22:54:05.734Z,22.90
2022-09-04T22:57:14.122Z,22.90
2022-09-04T23:00:09.418Z,22.90
2022-09-04T23:03:06.559Z,22.80
2022-09-04T23:06:29.420Z,22.80
2022-09-04T23:13:46.538Z,22.90
2022-09-04T23:13:57.713Z,22.80
2022-09-04T23:15:57.719Z,22.90
2022-09-04T23:24:52.123Z,22.80
2022-09-04T23:26:45.330Z,22.70
2022-09-04T23:26:52.827Z,22.70
2022-09-04T23:28:27.054Z,22.70
2022-09-04T23:31:07.180Z,22.70
2022-09-04T23:33:41.775Z,22.60
2022-09-04T23:36:37.471Z,22.60
2022-09-04T23:39:28.659Z,22.60
2022-09-04T23:42:32.696Z,22.60
2022-09-04T23:45:25.653Z,22.50
2022-09-04T23:48:11.015Z,22.50
2022-09-04T23:50:44.138Z,22.40
2022-09-04T23:53:30.374Z,22.40
2022-09-04T23:56:21.795Z,22.40
2022-09-04T23:59:22.716Z,22.30
